Time;durP1;ratioP1;P1;durP2;ratioP2;P2;SDS_P1;SDS_P2;PMS_P1;PMS_P2;Temp;Humidity;BMP_temperature;BMP_pressure;BME280_temperature;BME280_humidity;BME280_pressure;Samples;Min_cycle;Max_cycle;Signal;HPM_P1;HPM_P2
2021/08/24 00:01:15;;;;;;;20.10;19.10;;;;;;;;;;5033517;28;20036;-82
2021/08/24 00:03:41;;;;;;;30.27;28.98;;;;;;;;;;5016718;28;20108;-82
2021/08/24 00:06:06;;;;;;;28.58;27.38;;;;;;;;;;5033700;28;20052;-82
2021/08/24 00:08:34;;;;;;;30.70;29.40;;;;;;;;;;5033367;28;20028;-82
2021/08/24 00:11:00;;;;;;;26.30;25.02;;;;;;;;;;5017241;28;20067;-81
2021/08/24 00:13:26;;;;;;;20.35;19.35;;;;;;;;;;5016788;28;20049;-82
2021/08/24 00:15:53;;;;;;;24.48;23.30;;;;;;;;;;5016986;28;20037;-81
2021/08/24 00:18:19;;;;;;;21.40;20.40;;;;;;;;;;5033866;28;20037;-82
2021/08/24 00:20:46;;;;;;;21.85;20.85;;;;;;;;;;5016867;28;20132;-82
2021/08/24 00:23:13;;;;;;;16.73;15.90;;;;;;;;;;5000529;28;20040;-82
2021/08/24 00:25:40;;;;;;;19.48;18.58;;;;;;;;;;5016497;28;20041;-82
2021/08/24 00:28:06;;;;;;;29.98;28.60;;;;;;;;;;5033760;28;20039;-82
2021/08/24 00:30:31;;;;;;;20.13;19.17;;;;;;;;;;5033898;28;20040;-82
2021/08/24 00:32:58;;;;;;;24.20;23.15;;;;;;;;;;5016839;28;20145;-82
2021/08/24 00:35:23;;;;;;;27.38;26.15;;;;;;;;;;5000794;28;20145;-82
2021/08/24 00:37:50;;;;;;;25.63;24.40;;;;;;;;;;5032812;28;20499;-82
2021/08/24 00:40:15;;;;;;;26.17;25.08;;;;;;;;;;5033393;28;20095;-82
2021/08/24 00:42:41;;;;;;;23.88;22.70;;;;;;;;;;4992023;28;20025;-82
2021/08/24 00:45:08;;;;;;;24.55;23.48;;;;;;;;;;5013886;28;20041;-82
2021/08/24 00:47:34;;;;;;;22.80;21.75;;;;;;;;;;4998177;28;20080;-81
2021/08/24 00:50:14;;;;;;;23.83;22.83;;;;;;;;;;5012048;28;20041;-81
2021/08/24 00:52:39;;;;;;;23.08;21.90;;;;;;;;;;5034947;28;20446;-82
2021/08/24 00:55:05;;;;;;;20.92;19.90;;;;;;;;;;5033374;28;20048;-82
2021/08/24 00:57:30;;;;;;;24.17;22.98;;;;;;;;;;5032668;28;20044;-82
2021/08/24 00:59:56;;;;;;;23.85;22.85;;;;;;;;;;5016657;28;20033;-82
2021/08/24 01:02:22;;;;;;;28.73;27.52;;;;;;;;;;5016141;28;20086;-82
2021/08/24 01:04:50;;;;;;;30.95;29.65;;;;;;;;;;5017166;28;20029;-82
2021/08/24 01:07:30;;;;;;;25.00;23.85;;;;;;;;;;5016202;28;20033;-82
2021/08/24 01:10:17;;;;;;;26.80;25.67;;;;;;;;;;5019225;28;20037;-81
2021/08/24 01:12:52;;;;;;;23.88;22.83;;;;;;;;;;5052629;28;20041;-82
2021/08/24 01:15:24;;;;;;;19.38;18.52;;;;;;;;;;5053346;28;20045;-83
2021/08/24 01:17:57;;;;;;;19.73;18.67;;;;;;;;;;5053013;28;20036;-82
2021/08/24 01:20:48;;;;;;;18.67;17.75;;;;;;;;;;5004181;28;20037;-82
2021/08/24 01:23:48;;;;;;;22.27;21.42;;;;;;;;;;5036075;28;20033;-82
2021/08/24 01:26:44;;;;;;;15.07;14.23;;;;;;;;;;5049872;28;20048;-82
2021/08/24 01:30:08;;;;;;;17.85;16.98;;;;;;;;;;5033418;28;20466;-82
2021/08/24 01:32:54;;;;;;;11.80;11.10;;;;;;;;;;4979077;28;20041;-82
2021/08/24 01:36:00;;;;;;;19.10;18.10;;;;;;;;;;4963384;28;20034;-82
2021/08/24 01:38:27;;;;;;;18.67;17.77;;;;;;;;;;5052971;28;20060;-81
2021/08/24 01:41:18;;;;;;;17.77;16.65;;;;;;;;;;5015668;28;20048;-82
2021/08/24 01:44:01;;;;;;;20.33;19.27;;;;;;;;;;5049752;28;20057;-82
2021/08/24 01:46:39;;;;;;;16.02;15.13;;;;;;;;;;5052599;28;20044;-82
2021/08/24 01:49:05;;;;;;;15.32;14.52;;;;;;;;;;5004332;28;20048;-82
2021/08/24 01:51:36;;;;;;;16.33;15.52;;;;;;;;;;5019649;28;20029;-82
2021/08/24 01:54:04;;;;;;;14.55;13.85;;;;;;;;;;5020277;28;20495;-82
2021/08/24 01:56:35;;;;;;;13.60;12.98;;;;;;;;;;5019663;28;20036;-82
2021/08/24 01:59:11;;;;;;;14.23;13.45;;;;;;;;;;5036402;28;20069;-82
2021/08/24 02:01:44;;;;;;;14.65;13.65;;;;;;;;;;5019366;28;20037;-83
2021/08/24 02:04:13;;;;;;;17.95;17.05;;;;;;;;;;5019875;28;20036;-83
2021/08/24 02:06:41;;;;;;;17.20;16.38;;;;;;;;;;5003246;28;20030;-83
2021/08/24 02:09:09;;;;;;;16.60;15.80;;;;;;;;;;5019677;28;20496;-82
2021/08/24 02:11:35;;;;;;;12.65;12.05;;;;;;;;;;5035638;28;20131;-83
2021/08/24 02:14:07;;;;;;;14.80;14.00;;;;;;;;;;5018688;28;20137;-83
2021/08/24 02:16:33;;;;;;;17.10;16.20;;;;;;;;;;5020021;28;20033;-83
2021/08/24 02:19:10;;;;;;;17.65;16.83;;;;;;;;;;5015861;28;20400;-83
2021/08/24 02:21:44;;;;;;;18.60;17.70;;;;;;;;;;5000418;28;20029;-83
2021/08/24 02:24:13;;;;;;;15.73;14.93;;;;;;;;;;5016234;28;20047;-83
2021/08/24 02:26:39;;;;;;;17.00;16.30;;;;;;;;;;5027334;28;20403;-83
2021/08/24 02:29:04;;;;;;;16.73;15.73;;;;;;;;;;5018648;28;20033;-82
2021/08/24 02:32:02;;;;;;;24.95;23.70;;;;;;;;;;5035354;28;20095;-83
2021/08/24 02:34:35;;;;;;;16.17;15.27;;;;;;;;;;5030235;28;20049;-83
2021/08/24 02:37:09;;;;;;;;;;;;;;;;;;5019407;28;20045;-84
2021/08/24 02:39:45;;;;;;;9.50;9.00;;;;;;;;;;5068784;28;19916;-83
2021/08/24 02:42:17;;;;;;;13.57;12.68;;;;;;;;;;5031208;28;20095;-82
2021/08/24 02:44:53;;;;;;;12.07;11.45;;;;;;;;;;4998967;28;20038;-83
2021/08/24 02:47:19;;;;;;;13.70;13.02;;;;;;;;;;4986460;28;20455;-83
2021/08/24 02:49:44;;;;;;;12.90;12.23;;;;;;;;;;5035142;28;20045;-83
2021/08/24 02:52:10;;;;;;;17.30;16.27;;;;;;;;;;5018569;28;20124;-83
2021/08/24 02:54:44;;;;;;;10.45;9.93;;;;;;;;;;5018334;28;20171;-83
2021/08/24 02:57:10;;;;;;;15.80;15.02;;;;;;;;;;5017602;28;20044;-82
2021/08/24 02:59:35;;;;;;;15.18;14.48;;;;;;;;;;5018549;28;20037;-83
2021/08/24 03:02:01;;;;;;;17.63;16.70;;;;;;;;;;5035423;28;20063;-83
2021/08/24 03:04:27;;;;;;;13.90;13.20;;;;;;;;;;5026804;28;20033;-83
2021/08/24 03:06:57;;;;;;;14.80;14.00;;;;;;;;;;5021531;28;20033;-83
2021/08/24 03:09:23;;;;;;;19.38;18.25;;;;;;;;;;5038010;28;20406;-83
2021/08/24 03:12:05;;;;;;;19.08;17.92;;;;;;;;;;5038186;28;20040;-83
2021/08/24 03:15:03;;;;;;;13.05;12.35;;;;;;;;;;5037972;28;20040;-83
2021/08/24 03:18:01;;;;;;;14.63;13.82;;;;;;;;;;5045852;28;20121;-83
2021/08/24 03:20:33;;;;;;;11.93;11.32;;;;;;;;;;5025508;28;20129;-83
2021/08/24 03:22:59;;;;;;;14.60;13.90;;;;;;;;;;4999309;28;20127;-83
2021/08/24 03:25:25;;;;;;;11.57;10.95;;;;;;;;;;5017875;28;20112;-83
2021/08/24 03:27:51;;;;;;;17.90;17.10;;;;;;;;;;5000422;28;20501;-83
2021/08/24 03:30:17;;;;;;;18.10;17.25;;;;;;;;;;5017769;28;20029;-83
2021/08/24 03:32:42;;;;;;;12.35;11.45;;;;;;;;;;5033894;28;20037;-83
2021/08/24 03:35:09;;;;;;;16.48;15.52;;;;;;;;;;5013843;28;20136;-82
2021/08/24 03:37:35;;;;;;;11.32;10.77;;;;;;;;;;5030990;28;20457;-83
2021/08/24 03:40:01;;;;;;;19.38;18.48;;;;;;;;;;5014370;28;20038;-83
2021/08/24 03:42:26;;;;;;;12.35;11.65;;;;;;;;;;5023591;28;20079;-83
2021/08/24 03:44:51;;;;;;;8.85;8.35;;;;;;;;;;5017572;28;20051;-82
2021/08/24 03:47:18;;;;;;;13.35;12.57;;;;;;;;;;5034119;28;20134;-83
2021/08/24 03:49:43;;;;;;;11.60;11.00;;;;;;;;;;5016913;28;20041;-83
2021/08/24 03:52:09;;;;;;;10.57;9.90;;;;;;;;;;5017703;28;20056;-83
2021/08/24 03:54:34;;;;;;;10.88;10.35;;;;;;;;;;5017813;28;20033;-83
2021/08/24 03:57:00;;;;;;;11.95;11.32;;;;;;;;;;5014216;28;20574;-83
2021/08/24 03:59:25;;;;;;;9.00;8.48;;;;;;;;;;5000715;28;20068;-83
2021/08/24 04:01:51;;;;;;;11.60;10.88;;;;;;;;;;5017285;28;20120;-84
2021/08/24 04:04:16;;;;;;;8.85;8.25;;;;;;;;;;5013846;28;20056;-83
2021/08/24 04:06:42;;;;;;;12.07;11.48;;;;;;;;;;5013869;28;20485;-83
2021/08/24 04:09:08;;;;;;;8.27;7.68;;;;;;;;;;5030400;28;20041;-83
2021/08/24 04:11:33;;;;;;;11.07;10.40;;;;;;;;;;5030155;28;20033;-83
2021/08/24 04:13:59;;;;;;;13.02;12.27;;;;;;;;;;5016427;28;20052;-83
2021/08/24 04:16:24;;;;;;;11.98;11.25;;;;;;;;;;5017272;28;20029;-84
2021/08/24 04:18:49;;;;;;;10.50;9.90;;;;;;;;;;5000926;28;20040;-83
2021/08/24 04:21:16;;;;;;;9.15;8.65;;;;;;;;;;5017205;28;20055;-83
2021/08/24 04:23:42;;;;;;;7.68;7.13;;;;;;;;;;5016855;28;20498;-83
2021/08/24 04:26:08;;;;;;;14.02;13.30;;;;;;;;;;5033178;28;20037;-84
2021/08/24 04:28:34;;;;;;;12.82;12.13;;;;;;;;;;5017433;28;20040;-83
2021/08/24 04:31:05;;;;;;;8.57;7.97;;;;;;;;;;5017073;28;20491;-84
2021/08/24 04:33:31;;;;;;;9.40;8.80;;;;;;;;;;5016955;28;20182;-84
2021/08/24 04:35:57;;;;;;;8.88;8.18;;;;;;;;;;5017369;28;20041;-84
2021/08/24 04:38:22;;;;;;;11.50;10.90;;;;;;;;;;5017290;28;20078;-84
2021/08/24 04:40:49;;;;;;;5.93;5.38;;;;;;;;;;5016757;28;20043;-84
2021/08/24 04:43:14;;;;;;;7.47;6.97;;;;;;;;;;5032918;28;20040;-84
2021/08/24 04:45:40;;;;;;;9.27;8.77;;;;;;;;;;5020285;28;20128;-84
2021/08/24 04:48:06;;;;;;;8.60;8.00;;;;;;;;;;5028376;28;20467;-84
2021/08/24 04:50:31;;;;;;;8.18;7.68;;;;;;;;;;5017719;28;20037;-84
2021/08/24 04:52:57;;;;;;;14.00;13.20;;;;;;;;;;5001558;28;20053;-83
2021/08/24 04:55:22;;;;;;;8.00;7.35;;;;;;;;;;5000768;28;20043;-83
2021/08/24 04:57:48;;;;;;;12.85;12.07;;;;;;;;;;5034576;28;20055;-83
2021/08/24 05:00:14;;;;;;;7.53;7.03;;;;;;;;;;5021025;28;20491;-84
2021/08/24 05:02:40;;;;;;;9.85;9.23;;;;;;;;;;5020760;28;20033;-84
2021/08/24 05:05:06;;;;;;;10.07;9.43;;;;;;;;;;5033774;28;20041;-83
2021/08/24 05:07:31;;;;;;;11.70;11.00;;;;;;;;;;5000907;28;20050;-83
2021/08/24 05:09:56;;;;;;;7.53;7.05;;;;;;;;;;5019413;28;20036;-83
2021/08/24 05:12:22;;;;;;;10.30;9.70;;;;;;;;;;5036626;28;20055;-83
2021/08/24 05:14:48;;;;;;;6.78;6.32;;;;;;;;;;5020585;28;20209;-83
2021/08/24 05:17:14;;;;;;;10.77;10.18;;;;;;;;;;5019558;28;20051;-84
2021/08/24 05:19:39;;;;;;;8.18;7.47;;;;;;;;;;5003852;28;20036;-83
2021/08/24 05:22:05;;;;;;;8.75;8.10;;;;;;;;;;5036018;28;20043;-84
2021/08/24 05:24:33;;;;;;;5.28;3.28;;;;;;;;;;5020908;28;20047;-83
2021/08/24 05:26:58;;;;;;;7.40;6.78;;;;;;;;;;5013913;28;20386;-84
2021/08/24 05:29:24;;;;;;;6.05;5.50;;;;;;;;;;5018703;28;20036;-85
2021/08/24 05:31:50;;;;;;;7.72;7.00;;;;;;;;;;5019386;28;20067;-84
2021/08/24 05:34:15;;;;;;;6.55;6.05;;;;;;;;;;5003641;28;20032;-83
2021/08/24 05:36:41;;;;;;;7.00;4.68;;;;;;;;;;5019226;28;20037;-86
2021/08/24 05:39:08;;;;;;;5.15;4.43;;;;;;;;;;5036436;28;20029;-80
2021/08/24 05:41:34;;;;;;;8.65;8.00;;;;;;;;;;5019723;28;20045;-83
2021/08/24 05:43:59;;;;;;;4.38;3.97;;;;;;;;;;5019511;28;20513;-83
2021/08/24 05:46:25;;;;;;;7.90;7.13;;;;;;;;;;5016083;28;20123;-83
2021/08/24 05:48:52;;;;;;;6.75;4.03;;;;;;;;;;4999999;28;20040;-83
2021/08/24 05:51:19;;;;;;;9.15;8.45;;;;;;;;;;4999651;28;20078;-83
2021/08/24 05:53:44;;;;;;;3.85;3.47;;;;;;;;;;5016213;28;20487;-83
2021/08/24 05:56:21;;;;;;;6.60;6.10;;;;;;;;;;5016424;28;20056;-84
2021/08/24 05:58:46;;;;;;;6.32;4.35;;;;;;;;;;5019245;28;20032;-83
2021/08/24 06:01:28;;;;;;;4.95;4.00;;;;;;;;;;5019619;28;20411;-83
2021/08/24 06:03:54;;;;;;;5.97;5.55;;;;;;;;;;5035214;28;20041;-83
2021/08/24 06:06:27;;;;;;;7.30;6.63;;;;;;;;;;5018650;28;20052;-83
2021/08/24 06:08:53;;;;;;;6.95;6.35;;;;;;;;;;5019848;28;20037;-89
2021/08/24 06:11:29;;;;;;;6.00;5.50;;;;;;;;;;5019790;28;20090;-83
2021/08/24 06:13:57;;;;;;;4.60;3.65;;;;;;;;;;5019049;28;20159;-86
2021/08/24 06:16:24;;;;;;;5.60;5.20;;;;;;;;;;5015031;28;20048;-84
2021/08/24 06:18:50;;;;;;;7.13;6.35;;;;;;;;;;4999782;28;20484;-84
2021/08/24 06:21:16;;;;;;;5.18;4.63;;;;;;;;;;5002377;28;20044;-83
2021/08/24 06:23:42;;;;;;;4.30;2.53;;;;;;;;;;5002849;28;20029;-82
2021/08/24 06:26:08;;;;;;;4.97;4.55;;;;;;;;;;5035373;28;20502;-86
2021/08/24 06:28:34;;;;;;;5.32;2.90;;;;;;;;;;5003032;28;20044;-87
2021/08/24 06:31:01;;;;;;;5.72;5.32;;;;;;;;;;5019445;28;20068;-87
2021/08/24 06:33:29;;;;;;;4.68;4.18;;;;;;;;;;5019294;28;20041;-86
2021/08/24 06:35:55;;;;;;;5.15;4.70;;;;;;;;;;5018448;28;20036;-82
2021/08/24 06:38:20;;;;;;;6.57;6.07;;;;;;;;;;5035594;28;20044;-82
2021/08/24 06:40:46;;;;;;;4.93;3.85;;;;;;;;;;5035124;28;20033;-82
2021/08/24 06:43:11;;;;;;;5.70;4.80;;;;;;;;;;5034916;28;20036;-85
2021/08/24 06:45:37;;;;;;;5.43;4.68;;;;;;;;;;5017867;28;20041;-88
2021/08/24 06:48:03;;;;;;;5.88;5.32;;;;;;;;;;5018984;28;20407;-84
2021/08/24 06:50:29;;;;;;;6.97;4.60;;;;;;;;;;5002021;28;20047;-89
2021/08/24 06:52:54;;;;;;;6.82;2.75;;;;;;;;;;5019427;28;20037;-87
2021/08/24 06:55:25;;;;;;;5.32;2.78;;;;;;;;;;5052765;28;20263;-89
2021/08/24 06:57:52;;;;;;;11.70;6.15;;;;;;;;;;5017384;28;20787;-88
2021/08/24 07:00:21;;;;;;;5.45;4.45;;;;;;;;;;5035481;28;20039;-87
2021/08/24 07:02:47;;;;;;;17.73;16.42;;;;;;;;;;5018330;28;20028;-87
2021/08/24 07:05:16;;;;;;;21.73;20.60;;;;;;;;;;5018270;28;20029;-87
2021/08/24 07:07:43;;;;;;;8.38;7.57;;;;;;;;;;5034827;28;20032;-86
2021/08/24 07:10:11;;;;;;;10.60;4.63;;;;;;;;;;5002103;28;20060;-87
2021/08/24 07:12:37;;;;;;;10.93;3.40;;;;;;;;;;5018955;28;20029;-87
2021/08/24 07:15:04;;;;;;;8.55;3.42;;;;;;;;;;5013928;28;20116;-86
2021/08/24 07:17:30;;;;;;;6.40;2.72;;;;;;;;;;5028430;28;20060;-87
2021/08/24 07:19:57;;;;;;;7.13;2.20;;;;;;;;;;5034699;28;20083;-88
2021/08/24 07:22:22;;;;;;;8.25;2.58;;;;;;;;;;5015133;28;20381;-87
2021/08/24 07:24:48;;;;;;;5.97;2.85;;;;;;;;;;5002193;28;20114;-87
2021/08/24 07:27:15;;;;;;;6.47;2.42;;;;;;;;;;5033906;28;20039;-86
2021/08/24 07:29:40;;;;;;;5.60;2.78;;;;;;;;;;5015190;28;20506;-86
2021/08/24 07:32:06;;;;;;;4.00;2.60;;;;;;;;;;5017628;28;20029;-88
2021/08/24 07:34:33;;;;;;;4.90;2.35;;;;;;;;;;5018475;28;20036;-87
2021/08/24 07:36:59;;;;;;;4.22;2.22;;;;;;;;;;5034503;28;20088;-87
2021/08/24 07:39:24;;;;;;;5.10;2.08;;;;;;;;;;5017660;28;20117;-87
2021/08/24 07:41:50;;;;;;;4.38;2.15;;;;;;;;;;5051366;28;20041;-87
2021/08/24 07:44:30;;;;;;;4.35;2.55;;;;;;;;;;5034370;28;20039;-88
2021/08/24 07:46:58;;;;;;;8.27;2.78;;;;;;;;;;5032546;28;20033;-88
2021/08/24 07:49:26;;;;;;;5.38;2.95;;;;;;;;;;5000145;28;20026;-88
2021/08/24 07:51:55;;;;;;;5.55;2.45;;;;;;;;;;4999513;28;20499;-88
2021/08/24 07:54:22;;;;;;;5.60;2.80;;;;;;;;;;5021539;28;20037;-88
2021/08/24 07:56:49;;;;;;;5.82;2.70;;;;;;;;;;5018908;28;20036;-88
2021/08/24 07:59:15;;;;;;;5.75;2.40;;;;;;;;;;5034952;28;20029;-88
2021/08/24 08:01:43;;;;;;;8.45;2.83;;;;;;;;;;5018750;28;20094;-88
2021/08/24 08:04:12;;;;;;;6.40;2.35;;;;;;;;;;5018764;28;20044;-89
2021/08/24 08:06:39;;;;;;;5.70;2.47;;;;;;;;;;5035090;28;20040;-89
2021/08/24 08:09:06;;;;;;;7.00;3.70;;;;;;;;;;5051970;28;20072;-90
2021/08/24 08:11:35;;;;;;;9.80;6.78;;;;;;;;;;5015278;28;20037;-90
2021/08/24 08:14:04;;;;;;;9.85;5.47;;;;;;;;;;4998892;28;20033;-88
2021/08/24 08:16:29;;;;;;;7.20;4.53;;;;;;;;;;5020476;28;20042;-89
2021/08/24 08:18:55;;;;;;;6.78;3.72;;;;;;;;;;4998825;28;20030;-90
2021/08/24 08:21:21;;;;;;;6.97;3.60;;;;;;;;;;4998932;28;20090;-88
2021/08/24 08:23:50;;;;;;;6.75;3.33;;;;;;;;;;4982981;28;20124;-90
2021/08/24 08:26:19;;;;;;;7.25;3.40;;;;;;;;;;5014997;28;20052;-90
2021/08/24 08:28:45;;;;;;;6.00;2.90;;;;;;;;;;4998932;28;20056;-91
2021/08/24 08:31:13;;;;;;;6.47;2.90;;;;;;;;;;4982829;28;20042;-91
2021/08/24 08:33:42;;;;;;;7.07;2.90;;;;;;;;;;5015823;28;20037;-90
2021/08/24 08:36:07;;;;;;;6.15;2.75;;;;;;;;;;4999059;28;20033;-90
2021/08/24 08:38:36;;;;;;;8.93;3.28;;;;;;;;;;4998223;28;20029;-91
2021/08/24 08:41:14;;;;;;;5.75;2.72;;;;;;;;;;5014562;28;20045;-91
2021/08/24 08:43:45;;;;;;;6.55;2.65;;;;;;;;;;5048089;28;20484;-90
2021/08/24 08:46:31;;;;;;;6.45;2.22;;;;;;;;;;5031817;28;20129;-89
2021/08/24 08:49:26;;;;;;;8.88;3.00;;;;;;;;;;5031008;28;20415;-90
2021/08/24 08:52:33;;;;;;;7.60;2.60;;;;;;;;;;5034981;28;20057;-90
2021/08/24 08:55:20;;;;;;;10.07;2.90;;;;;;;;;;4979625;28;20042;-93
2021/08/24 08:58:07;;;;;;;10.25;3.05;;;;;;;;;;5013986;28;20435;-93
2021/08/24 09:00:49;;;;;;;5.25;2.88;;;;;;;;;;5014950;28;20083;-93
2021/08/24 09:03:47;;;;;;;8.38;3.20;;;;;;;;;;5016495;28;20132;-93
2021/08/24 09:06:16;;;;;;;6.10;3.22;;;;;;;;;;5001179;28;20041;-92
2021/08/24 09:08:45;;;;;;;8.55;5.22;;;;;;;;;;5014893;28;20407;-94
2021/08/24 09:11:14;;;;;;;8.88;4.70;;;;;;;;;;5015376;28;20029;-93
2021/08/24 09:13:47;;;;;;;6.78;4.10;;;;;;;;;;5014989;28;20037;-93
2021/08/24 09:16:28;;;;;;;6.97;3.58;;;;;;;;;;5014650;28;20467;-93
2021/08/24 09:19:13;;;;;;;6.32;3.60;;;;;;;;;;5017598;28;20388;-92
2021/08/24 09:21:43;;;;;;;7.22;2.92;;;;;;;;;;5018152;28;20033;-89
2021/08/24 09:24:29;;;;;;;4.68;2.80;;;;;;;;;;5018468;28;20118;-90
2021/08/24 09:26:58;;;;;;;5.90;2.80;;;;;;;;;;5030975;28;20044;-88
2021/08/24 09:29:36;;;;;;;4.00;2.80;;;;;;;;;;5030979;28;20930;-89
2021/08/24 09:32:04;;;;;;;5.50;2.95;;;;;;;;;;5033799;28;20035;-90
2021/08/24 09:34:34;;;;;;;4.40;2.80;;;;;;;;;;5012615;28;20086;-89
2021/08/24 09:37:00;;;;;;;4.80;3.08;;;;;;;;;;5021255;28;20040;-89
2021/08/24 09:40:05;;;;;;;5.78;3.45;;;;;;;;;;5021615;28;20484;-89
2021/08/24 09:42:45;;;;;;;6.07;3.63;;;;;;;;;;5053540;28;20047;-89
2021/08/24 09:45:28;;;;;;;4.25;3.05;;;;;;;;;;5020345;28;20048;-87
2021/08/24 09:47:59;;;;;;;5.50;3.03;;;;;;;;;;5035445;28;20479;-87
2021/08/24 09:50:32;;;;;;;5.43;2.70;;;;;;;;;;5037382;28;20040;-91
2021/08/24 09:52:59;;;;;;;4.68;3.28;;;;;;;;;;5020704;28;20029;-86
2021/08/24 09:55:27;;;;;;;6.15;3.10;;;;;;;;;;5020162;28;20068;-87
2021/08/24 09:58:04;;;;;;;5.35;2.92;;;;;;;;;;5020748;28;20032;-87
2021/08/24 10:00:55;;;;;;;6.90;3.67;;;;;;;;;;5020648;28;20035;-91
2021/08/24 10:03:30;;;;;;;4.72;3.25;;;;;;;;;;5021193;28;20131;-87
2021/08/24 10:06:25;;;;;;;5.55;2.45;;;;;;;;;;5016584;28;20112;-86
2021/08/24 10:08:55;;;;;;;6.50;2.90;;;;;;;;;;5021450;28;20057;-86
2021/08/24 10:11:28;;;;;;;5.55;2.50;;;;;;;;;;4985202;28;20040;-92
2021/08/24 10:14:26;;;;;;;5.90;3.28;;;;;;;;;;5046022;28;20046;-92
2021/08/24 10:16:56;;;;;;;3.47;2.08;;;;;;;;;;5025332;28;20036;-89
2021/08/24 10:19:32;;;;;;;6.00;2.72;;;;;;;;;;5021517;28;20037;-90
2021/08/24 10:22:01;;;;;;;3.40;2.20;;;;;;;;;;5021248;28;20025;-91
2021/08/24 10:25:04;;;;;;;5.18;2.53;;;;;;;;;;5021140;28;20124;-91
2021/08/24 10:27:37;;;;;;;4.90;2.50;;;;;;;;;;4978265;28;20040;-90
2021/08/24 10:30:16;;;;;;;4.82;2.63;;;;;;;;;;5022042;28;20033;-91
2021/08/24 10:32:55;;;;;;;5.70;2.10;;;;;;;;;;5020864;28;20036;-91
2021/08/24 10:35:34;;;;;;;4.50;2.70;;;;;;;;;;5004148;28;20068;-89
2021/08/24 10:38:00;;;;;;;7.78;2.38;;;;;;;;;;5025501;28;20055;-94
2021/08/24 10:40:45;;;;;;;6.63;2.55;;;;;;;;;;5019467;28;20491;-82
2021/08/24 10:43:10;;;;;;;6.00;2.08;;;;;;;;;;5025850;28;20120;-82
2021/08/24 10:45:41;;;;;;;5.47;2.30;;;;;;;;;;5051484;28;20124;-82
2021/08/24 10:48:17;;;;;;;4.90;1.85;;;;;;;;;;5035720;28;20407;-89
2021/08/24 10:50:50;;;;;;;3.78;1.63;;;;;;;;;;5018720;28;20039;-84
2021/08/24 10:53:40;;;;;;;4.85;1.63;;;;;;;;;;5051699;28;20410;-84
2021/08/24 10:56:14;;;;;;;4.85;1.90;;;;;;;;;;5051180;28;20139;-83
2021/08/24 10:58:50;;;;;;;3.50;1.80;;;;;;;;;;5034618;28;20120;-84
2021/08/24 11:01:33;;;;;;;7.20;1.65;;;;;;;;;;5034971;28;20132;-83
2021/08/24 11:04:12;;;;;;;6.65;1.73;;;;;;;;;;5017859;28;20033;-82
2021/08/24 11:06:48;;;;;;;6.13;1.67;;;;;;;;;;5034506;28;20036;-81
2021/08/24 11:09:17;;;;;;;5.82;2.00;;;;;;;;;;5034522;28;20475;-82
2021/08/24 11:12:20;;;;;;;5.38;2.08;;;;;;;;;;5033920;28;20032;-81
2021/08/24 11:15:04;;;;;;;3.53;1.58;;;;;;;;;;5031353;28;20041;-81
2021/08/24 11:17:41;;;;;;;5.10;2.25;;;;;;;;;;4998586;28;20041;-81
2021/08/24 11:20:09;;;;;;;4.00;1.70;;;;;;;;;;5031235;28;20124;-81
2021/08/24 11:22:55;;;;;;;5.30;2.05;;;;;;;;;;5015128;28;20037;-81
2021/08/24 11:25:31;;;;;;;3.55;1.20;;;;;;;;;;4999973;28;20033;-82
2021/08/24 11:28:02;;;;;;;5.80;1.40;;;;;;;;;;5030913;28;20504;-81
2021/08/24 11:30:45;;;;;;;7.57;1.85;;;;;;;;;;5014814;28;20515;-81
2021/08/24 11:33:33;;;;;;;4.97;1.40;;;;;;;;;;5014582;28;20045;-81
2021/08/24 11:36:10;;;;;;;4.28;1.40;;;;;;;;;;5030937;28;20087;-81
2021/08/24 11:38:36;;;;;;;4.57;1.98;;;;;;;;;;5014278;28;20095;-81
2021/08/24 11:41:11;;;;;;;5.25;1.65;;;;;;;;;;5014594;28;20099;-81
2021/08/24 11:43:46;;;;;;;3.13;1.40;;;;;;;;;;5026904;28;20026;-80
2021/08/24 11:46:21;;;;;;;3.83;1.60;;;;;;;;;;5014106;28;20044;-82
2021/08/24 11:48:47;;;;;;;4.38;1.48;;;;;;;;;;5015208;28;20038;-81
2021/08/24 11:51:15;;;;;;;3.55;1.30;;;;;;;;;;5030396;28;20408;-81
2021/08/24 11:53:55;;;;;;;2.58;1.40;;;;;;;;;;5046221;28;20116;-81
2021/08/24 11:56:44;;;;;;;3.70;1.20;;;;;;;;;;5047031;28;20045;-81
2021/08/24 11:59:30;;;;;;;4.63;1.70;;;;;;;;;;5030410;28;20523;-81
2021/08/24 12:01:56;;;;;;;6.68;1.30;;;;;;;;;;5030769;28;20042;-81
2021/08/24 12:04:23;;;;;;;3.97;1.80;;;;;;;;;;5030218;28;20505;-81
2021/08/24 12:06:56;;;;;;;3.00;1.10;;;;;;;;;;5020045;28;20045;-81
2021/08/24 12:09:39;;;;;;;4.00;1.52;;;;;;;;;;5032734;28;20037;-81
2021/08/24 12:12:05;;;;;;;3.53;1.30;;;;;;;;;;5050634;28;20095;-81
2021/08/24 12:14:33;;;;;;;2.03;0.80;;;;;;;;;;5033742;28;20155;-81
2021/08/24 12:17:14;;;;;;;4.18;1.60;;;;;;;;;;5017202;28;20076;-81
2021/08/24 12:19:39;;;;;;;2.47;1.00;;;;;;;;;;5067053;28;20041;-81
2021/08/24 12:22:30;;;;;;;2.45;1.20;;;;;;;;;;5033287;28;20368;-81
2021/08/24 12:25:08;;;;;;;4.82;1.50;;;;;;;;;;5001639;28;20041;-81
2021/08/24 12:27:35;;;;;;;3.13;1.15;;;;;;;;;;5050610;28;20123;-81
2021/08/24 12:30:11;;;;;;;2.20;1.00;;;;;;;;;;5017975;28;20028;-81
2021/08/24 12:32:36;;;;;;;1.92;1.02;;;;;;;;;;5050277;28;20036;-81
2021/08/24 12:35:06;;;;;;;3.10;1.30;;;;;;;;;;5050091;28;20036;-81
2021/08/24 12:37:31;;;;;;;3.15;1.42;;;;;;;;;;5049659;28;20179;-82
2021/08/24 12:39:59;;;;;;;2.00;1.08;;;;;;;;;;5066663;28;20554;-82
2021/08/24 12:42:26;;;;;;;2.40;1.27;;;;;;;;;;5029807;28;20033;-82
2021/08/24 12:45:01;;;;;;;2.55;1.27;;;;;;;;;;5030025;28;20037;-82
2021/08/24 12:47:48;;;;;;;2.17;1.17;;;;;;;;;;5030150;28;20040;-82
2021/08/24 12:50:13;;;;;;;2.53;1.17;;;;;;;;;;5013605;28;20038;-82
2021/08/24 12:52:39;;;;;;;2.38;0.98;;;;;;;;;;5046497;28;20095;-82
2021/08/24 12:55:13;;;;;;;3.47;1.48;;;;;;;;;;5013275;28;20029;-82
2021/08/24 12:57:41;;;;;;;2.38;1.02;;;;;;;;;;5029968;28;20876;-81
2021/08/24 13:00:22;;;;;;;2.30;1.20;;;;;;;;;;4999430;28;20083;-81
2021/08/24 13:03:12;;;;;;;2.53;1.20;;;;;;;;;;5018376;28;20037;-81
2021/08/24 13:05:38;;;;;;;2.40;1.20;;;;;;;;;;5020631;28;20078;-81
2021/08/24 13:08:21;;;;;;;3.30;1.40;;;;;;;;;;5036573;28;20119;-81
2021/08/24 13:10:49;;;;;;;1.90;1.10;;;;;;;;;;5037049;28;20115;-81
2021/08/24 13:13:27;;;;;;;2.08;0.93;;;;;;;;;;5037011;28;20113;-81
2021/08/24 13:16:00;;;;;;;2.78;1.27;;;;;;;;;;5070366;28;20052;-81
2021/08/24 13:18:32;;;;;;;2.08;1.17;;;;;;;;;;5004880;28;20041;-81
2021/08/24 13:21:11;;;;;;;2.83;1.20;;;;;;;;;;5036508;28;20086;-82
2021/08/24 13:23:39;;;;;;;2.78;1.30;;;;;;;;;;5003991;28;20414;-81
2021/08/24 13:26:12;;;;;;;2.38;1.20;;;;;;;;;;5020227;28;20038;-82
2021/08/24 13:28:37;;;;;;;1.90;0.90;;;;;;;;;;5020193;28;20029;-82
2021/08/24 13:31:34;;;;;;;2.17;1.20;;;;;;;;;;5036787;28;20027;-82
2021/08/24 13:34:24;;;;;;;2.47;1.23;;;;;;;;;;5018885;28;20045;-81
2021/08/24 13:36:51;;;;;;;2.10;1.15;;;;;;;;;;5051986;28;20136;-82
2021/08/24 13:39:16;;;;;;;2.38;1.15;;;;;;;;;;5020025;28;20025;-82
2021/08/24 13:41:51;;;;;;;3.05;1.13;;;;;;;;;;5020036;28;20033;-82
2021/08/24 13:44:27;;;;;;;3.60;1.30;;;;;;;;;;5003713;28;20033;-82
2021/08/24 13:47:02;;;;;;;2.88;1.10;;;;;;;;;;5003632;28;20048;-82
2021/08/24 13:49:28;;;;;;;2.92;1.02;;;;;;;;;;5049636;28;20037;-82
2021/08/24 13:51:55;;;;;;;4.05;1.13;;;;;;;;;;4999806;28;20128;-81
2021/08/24 13:54:31;;;;;;;3.35;1.23;;;;;;;;;;5019098;28;20025;-81
2021/08/24 13:56:58;;;;;;;2.90;1.50;;;;;;;;;;5003540;28;20541;-81
2021/08/24 13:59:35;;;;;;;2.85;1.10;;;;;;;;;;5019417;28;20407;-81
2021/08/24 14:02:02;;;;;;;3.08;1.27;;;;;;;;;;5020875;28;20033;-81
2021/08/24 14:04:36;;;;;;;1.95;0.88;;;;;;;;;;5010268;28;20026;-81
2021/08/24 14:07:04;;;;;;;3.03;1.42;;;;;;;;;;5000363;28;20037;-82
2021/08/24 14:10:17;;;;;;;2.08;1.00;;;;;;;;;;5003606;28;20538;-82
2021/08/24 14:13:13;;;;;;;3.63;1.00;;;;;;;;;;5011328;28;20530;-81
2021/08/24 14:15:39;;;;;;;2.60;1.40;;;;;;;;;;5050977;28;20043;-81
2021/08/24 14:18:09;;;;;;;3.03;1.30;;;;;;;;;;5035077;28;20052;-81
2021/08/24 14:20:40;;;;;;;3.55;1.10;;;;;;;;;;5019023;28;20104;-82
2021/08/24 14:23:24;;;;;;;3.45;1.00;;;;;;;;;;5035837;28;20457;-82
2021/08/24 14:25:52;;;;;;;2.67;1.38;;;;;;;;;;5052258;28;20032;-82
2021/08/24 14:28:22;;;;;;;3.13;1.20;;;;;;;;;;5002962;28;20040;-82
2021/08/24 14:30:48;;;;;;;2.97;1.45;;;;;;;;;;5035317;28;20025;-81
2021/08/24 14:33:34;;;;;;;2.58;1.13;;;;;;;;;;5035085;28;20091;-82
2021/08/24 14:36:21;;;;;;;1.67;0.90;;;;;;;;;;5051884;28;20108;-82
2021/08/24 14:38:58;;;;;;;3.58;1.10;;;;;;;;;;5019058;28;20038;-82
2021/08/24 14:41:23;;;;;;;1.85;0.90;;;;;;;;;;5035325;28;20135;-81
2021/08/24 14:43:57;;;;;;;2.97;1.00;;;;;;;;;;5051465;28;20135;-81
2021/08/24 14:46:42;;;;;;;3.78;1.45;;;;;;;;;;5019243;28;20493;-82
2021/08/24 14:49:35;;;;;;;2.65;1.35;;;;;;;;;;5050682;28;20051;-82
2021/08/24 14:52:02;;;;;;;2.53;1.20;;;;;;;;;;5029642;28;20037;-81
2021/08/24 14:54:34;;;;;;;2.00;1.08;;;;;;;;;;5018877;28;20033;-81
2021/08/24 14:57:18;;;;;;;;;;;;;;;;;;5035291;28;20076;-82
2021/08/24 14:59:44;;;;;;;2.95;1.10;;;;;;;;;;5051689;28;19916;-81
2021/08/24 15:02:09;;;;;;;2.20;1.30;;;;;;;;;;5034951;28;20040;-81
2021/08/24 15:04:35;;;;;;;2.00;0.93;;;;;;;;;;5024751;28;20048;-82